createdAt,value
2023-01-03T00:00:48.037Z,99710.60
2023-01-03T00:03:45.815Z,99711.80
2023-01-03T00:06:43.601Z,99710.00
2023-01-03T00:09:41.035Z,99706.00
2023-01-03T00:12:38.822Z,99714.80
2023-01-03T00:15:36.463Z,99703.80
2023-01-03T00:18:34.172Z,99706.80
2023-01-03T00:21:31.599Z,99705.80
2023-01-03T00:24:29.392Z,99707.40
2023-01-03T00:27:27.162Z,99699.00
2023-01-03T00:30:24.601Z,99706.40
2023-01-03T00:33:22.271Z,99708.20
2023-01-03T00:36:19.705Z,99706.40
2023-01-03T00:39:17.403Z,99719.20
2023-01-03T00:42:14.852Z,99716.00
2023-01-03T00:45:17.523Z,99714.40
2023-01-03T00:48:17.490Z,99710.80
2023-01-03T00:51:14.984Z,99709.20
2023-01-03T00:54:13.008Z,99713.60
2023-01-03T00:57:10.497Z,99716.80
2023-01-03T01:00:08.225Z,99720.00
2023-01-03T01:03:05.812Z,99730.20
2023-01-03T01:06:03.728Z,99736.20
2023-01-03T01:09:01.414Z,99739.00
2023-01-03T01:11:58.849Z,99746.00
2023-01-03T01:14:56.743Z,99759.00
2023-01-03T01:17:54.161Z,99763.20
2023-01-03T01:20:51.864Z,99770.60
2023-01-03T01:23:49.272Z,99776.00
2023-01-03T01:26:46.964Z,99770.60
2023-01-03T01:29:44.401Z,99764.00
2023-01-03T01:32:42.083Z,99773.00
2023-01-03T01:35:39.807Z,99776.80
2023-01-03T01:38:37.571Z,99777.40
2023-01-03T01:41:53.023Z,99780.20
2023-01-03T01:44:52.182Z,99782.80
2023-01-03T01:47:49.909Z,99784.80
2023-01-03T01:50:47.644Z,99786.20
2023-01-03T01:53:45.335Z,99777.60
2023-01-03T01:56:42.788Z,99779.00
2023-01-03T01:59:40.568Z,99781.40
2023-01-03T02:02:38.222Z,99786.40
2023-01-03T02:05:36.188Z,99785.00
2023-01-03T02:08:33.955Z,99787.80
2023-01-03T02:11:31.412Z,99799.80
2023-01-03T02:14:29.158Z,99811.20
2023-01-03T02:17:27.101Z,99810.60
2023-01-03T02:20:24.701Z,99803.00
2023-01-03T02:23:22.177Z,99804.20
2023-01-03T02:26:19.977Z,99801.20
2023-01-03T02:29:17.606Z,99800.60
2023-01-03T02:32:15.028Z,99794.60
2023-01-03T02:35:12.841Z,99785.20
2023-01-03T02:38:10.297Z,99787.20
2023-01-03T02:41:08.073Z,99791.80
2023-01-03T02:44:05.522Z,99791.00
2023-01-03T02:47:03.306Z,99794.20
2023-01-03T02:50:01.068Z,99791.80
2023-01-03T02:52:58.487Z,99791.80
2023-01-03T02:55:56.196Z,99795.40
2023-01-03T02:58:53.652Z,99793.00
2023-01-03T03:01:51.581Z,99793.20
2023-01-03T03:04:49.121Z,99793.60
2023-01-03T03:07:46.865Z,99791.20
2023-01-03T03:11:02.323Z,99793.40
2023-01-03T03:13:59.796Z,99798.00
2023-01-03T03:16:59.920Z,99792.20
2023-01-03T03:20:15.291Z,99801.00
2023-01-03T03:23:30.678Z,99803.00
2023-01-03T03:26:28.312Z,99810.60
2023-01-03T03:29:25.747Z,99822.80
2023-01-03T03:32:23.480Z,99818.40
2023-01-03T03:35:20.920Z,99830.00
2023-01-03T03:38:18.694Z,99830.80
2023-01-03T03:41:34.073Z,99831.60
2023-01-03T03:44:49.391Z,99833.80
2023-01-03T03:47:46.981Z,99829.80
2023-01-03T03:50:44.418Z,99831.80
2023-01-03T03:53:42.145Z,99833.40
2023-01-03T03:56:39.829Z,99833.00
2023-01-03T03:59:37.254Z,99839.20
2023-01-03T04:02:35.058Z,99835.80
2023-01-03T04:05:32.527Z,99841.80
2023-01-03T04:08:30.257Z,99842.00
2023-01-03T04:11:27.686Z,99848.40
2023-01-03T04:14:25.386Z,99852.40
2023-01-03T04:17:23.146Z,99855.80
2023-01-03T04:20:20.614Z,99850.40
2023-01-03T04:23:18.333Z,99849.80
2023-01-03T04:26:15.787Z,99849.60
2023-01-03T04:29:13.591Z,99855.80
2023-01-03T04:32:11.298Z,99854.80
2023-01-03T04:35:09.226Z,99860.00
2023-01-03T04:38:07.007Z,99865.00
2023-01-03T04:41:04.470Z,99863.20
2023-01-03T04:44:05.317Z,99869.00
2023-01-03T04:47:02.748Z,99870.60
2023-01-03T04:50:00.451Z,99868.80
2023-01-03T04:52:57.896Z,99868.40
2023-01-03T04:55:57.102Z,99865.20
2023-01-03T04:58:54.527Z,99874.00
2023-01-03T05:01:53.323Z,99883.00
2023-01-03T05:04:51.105Z,99880.40
2023-01-03T05:07:48.552Z,99884.60
2023-01-03T05:10:46.253Z,99883.60
2023-01-03T05:13:43.683Z,99883.60
2023-01-03T05:16:41.502Z,99890.80
2023-01-03T05:19:59.389Z,99894.20
2023-01-03T05:23:14.871Z,99899.40
2023-01-03T05:26:12.521Z,99898.00
2023-01-03T05:29:09.948Z,99895.60
2023-01-03T05:32:07.702Z,99905.80
2023-01-03T05:35:05.199Z,99908.40
2023-01-03T05:38:02.909Z,99907.60
2023-01-03T05:41:00.449Z,99912.60
2023-01-03T05:43:58.246Z,99913.00
2023-01-03T05:46:55.690Z,99915.00
2023-01-03T05:49:53.479Z,99911.00
2023-01-03T05:52:51.216Z,99917.60
2023-01-03T05:55:48.673Z,99916.60
2023-01-03T05:58:46.455Z,99921.80
2023-01-03T06:01:43.980Z,99921.40
2023-01-03T06:04:41.989Z,99924.40
2023-01-03T06:07:39.490Z,99925.00
2023-01-03T06:10:37.563Z,99929.00
2023-01-03T06:13:35.302Z,99929.20
2023-01-03T06:16:50.393Z,99938.80
2023-01-03T06:19:48.116Z,99944.00
2023-01-03T06:22:45.603Z,99944.80
2023-01-03T06:25:43.356Z,99953.80
2023-01-03T06:28:40.801Z,99956.60
2023-01-03T06:31:38.581Z,99966.60
2023-01-03T06:34:36.002Z,99977.00
2023-01-03T06:37:33.606Z,99982.40
2023-01-03T06:40:38.070Z,99975.80
2023-01-03T06:43:38.376Z,99975.00
2023-01-03T06:46:53.922Z,99980.60
2023-01-03T06:50:23.456Z,99995.20
2023-01-03T06:53:21.216Z,99987.60
2023-01-03T06:56:18.867Z,99988.00
2023-01-03T06:59:16.301Z,99988.40
2023-01-03T07:02:14.264Z,99985.80
2023-01-03T07:05:11.911Z,99979.80
2023-01-03T07:08:09.661Z,99980.20
2023-01-03T07:11:07.424Z,99986.40
2023-01-03T07:14:05.618Z,99984.20
2023-01-03T07:17:03.378Z,99982.40
2023-01-03T07:20:00.842Z,99989.80
2023-01-03T07:22:58.587Z,99996.80
2023-01-03T07:25:56.012Z,100002.40
2023-01-03T07:28:53.734Z,100010.20
2023-01-03T07:31:51.262Z,100012.20
2023-01-03T07:34:49.055Z,100020.60
2023-01-03T07:37:46.797Z,100024.40
2023-01-03T07:40:44.273Z,100035.60
2023-01-03T07:43:42.064Z,100032.40
2023-01-03T07:46:39.673Z,100038.20
2023-01-03T07:49:37.520Z,100042.20
2023-01-03T07:52:34.945Z,100043.40
2023-01-03T07:55:34.337Z,100043.80
2023-01-03T07:58:32.774Z,100049.00
2023-01-03T08:01:31.352Z,100046.80
2023-01-03T08:04:29.280Z,100044.80
2023-01-03T08:07:26.712Z,100053.20
2023-01-03T08:10:42.411Z,100049.60
2023-01-03T08:13:39.832Z,100053.60
2023-01-03T08:16:37.597Z,100057.40
2023-01-03T08:19:37.794Z,100066.00
2023-01-03T08:22:39.524Z,100072.40
2023-01-03T08:25:37.181Z,100074.40
2023-01-03T08:28:34.721Z,100073.60
2023-01-03T08:31:32.583Z,100076.20
2023-01-03T08:34:30.519Z,100082.60
2023-01-03T08:37:28.355Z,100084.40
2023-01-03T08:40:26.133Z,100089.40
2023-01-03T08:43:23.849Z,100091.60
2023-01-03T08:46:21.532Z,100091.40
2023-01-03T08:49:19.231Z,100094.20
2023-01-03T08:52:16.894Z,100092.40
2023-01-03T08:55:14.326Z,100089.40
2023-01-03T08:58:12.639Z,100094.80
2023-01-03T09:01:11.533Z,100095.20
2023-01-03T09:04:09.570Z,100096.20
2023-01-03T09:07:07.144Z,100097.00
2023-01-03T09:10:04.780Z,100101.00
2023-01-03T09:13:02.219Z,100102.60
2023-01-03T09:15:59.971Z,100103.60
2023-01-03T09:18:57.947Z,100106.60
2023-01-03T09:21:55.631Z,100113.40
2023-01-03T09:24:53.441Z,100110.80
2023-01-03T09:27:50.895Z,100109.40
2023-01-03T09:30:48.670Z,100111.40
2023-01-03T09:33:46.085Z,100114.00
2023-01-03T09:36:43.790Z,100115.60
2023-01-03T09:39:41.344Z,100120.00
2023-01-03T09:42:57.160Z,100116.80
2023-01-03T09:45:55.261Z,100123.60
2023-01-03T09:48:53.082Z,100114.80
2023-01-03T09:52:08.376Z,100115.20
2023-01-03T09:55:28.975Z,100115.20
2023-01-03T09:58:44.565Z,100116.00
2023-01-03T10:02:00.327Z,100114.20
2023-01-03T10:04:58.066Z,100113.00
2023-01-03T10:07:55.770Z,100117.80
2023-01-03T10:10:53.181Z,100113.40
2023-01-03T10:13:50.903Z,100103.60
2023-01-03T10:16:49.037Z,100105.80
2023-01-03T10:19:46.848Z,100099.80
2023-01-03T10:22:44.296Z,100099.80
2023-01-03T10:25:41.925Z,100096.20
2023-01-03T10:28:41.378Z,100098.00
2023-01-03T10:31:38.836Z,100100.40
2023-01-03T10:34:36.613Z,100108.60
2023-01-03T10:37:34.044Z,100104.00
2023-01-03T10:40:31.615Z,100105.80
2023-01-03T10:43:29.521Z,100102.80
2023-01-03T10:46:28.496Z,100103.60
2023-01-03T10:49:28.456Z,100104.40
2023-01-03T10:52:27.188Z,100105.00
2023-01-03T10:55:26.843Z,100100.20
2023-01-03T10:58:28.016Z,100101.80
2023-01-03T11:01:28.617Z,100103.00
2023-01-03T11:04:26.152Z,100103.60
2023-01-03T11:07:23.821Z,100099.80
2023-01-03T11:10:21.646Z,100094.40
2023-01-03T11:13:19.091Z,100093.20
2023-01-03T11:16:16.915Z,100096.40
2023-01-03T11:19:14.378Z,100092.00
2023-01-03T11:22:12.089Z,100093.20
2023-01-03T11:25:09.558Z,100091.20
2023-01-03T11:28:13.707Z,100096.00
2023-01-03T11:31:13.582Z,100092.40
2023-01-03T11:34:10.993Z,100093.60
2023-01-03T11:37:09.280Z,100089.80
2023-01-03T11:40:06.713Z,100085.80
2023-01-03T11:43:04.394Z,100082.40
2023-01-03T11:46:01.852Z,100086.00
2023-01-03T11:48:59.625Z,100082.00
2023-01-03T11:51:57.381Z,100082.40
2023-01-03T11:54:54.803Z,100078.40
2023-01-03T11:57:52.519Z,100073.80
2023-01-03T12:00:50.037Z,100065.20
2023-01-03T12:03:48.171Z,100070.00
2023-01-03T12:06:45.591Z,100063.60
2023-01-03T12:09:43.267Z,100076.20
2023-01-03T12:12:40.688Z,100075.60
2023-01-03T12:15:38.446Z,100078.20
2023-01-03T12:18:36.159Z,100075.60
2023-01-03T12:21:33.579Z,100073.00
2023-01-03T12:24:31.393Z,100067.20
2023-01-03T12:27:29.281Z,100071.60
2023-01-03T12:30:27.049Z,100072.40
2023-01-03T12:33:24.468Z,100066.00
2023-01-03T12:36:22.094Z,100063.80
2023-01-03T12:39:20.091Z,100069.40
2023-01-03T12:42:17.555Z,100070.40
2023-01-03T12:45:15.281Z,100065.60
2023-01-03T12:48:13.449Z,100063.00
2023-01-03T12:51:11.169Z,100064.60
2023-01-03T12:54:08.863Z,100064.60
2023-01-03T12:57:08.289Z,100066.00
2023-01-03T13:00:08.651Z,100065.80
2023-01-03T13:03:06.322Z,100067.60
2023-01-03T13:06:04.337Z,100062.80
2023-01-03T13:09:01.810Z,100061.80
2023-01-03T13:11:59.577Z,100058.60
2023-01-03T13:14:57.354Z,100058.00
2023-01-03T13:17:54.775Z,100062.60
2023-01-03T13:20:52.597Z,100061.60
2023-01-03T13:23:50.015Z,100059.60
2023-01-03T13:26:51.594Z,100065.60
2023-01-03T13:29:49.379Z,100065.20
2023-01-03T13:32:47.206Z,100064.60
2023-01-03T13:35:44.896Z,100064.80
2023-01-03T13:38:42.326Z,100061.80
2023-01-03T13:41:40.046Z,100060.40
2023-01-03T13:44:37.518Z,100059.00
2023-01-03T13:47:35.225Z,100056.80
2023-01-03T13:50:32.648Z,100060.40
2023-01-03T13:53:30.274Z,100060.20
2023-01-03T13:56:28.007Z,100066.00
2023-01-03T13:59:25.920Z,100069.00
2023-01-03T14:02:24.300Z,100071.00
2023-01-03T14:05:21.932Z,100073.40
2023-01-03T14:08:19.569Z,100071.00
2023-01-03T14:11:16.991Z,100080.00
2023-01-03T14:14:14.709Z,100084.40
2023-01-03T14:17:12.485Z,100091.60
2023-01-03T14:20:09.906Z,100089.00
2023-01-03T14:23:39.634Z,100087.20
2023-01-03T14:26:25.139Z,100092.20
2023-01-03T14:29:22.902Z,100092.60
2023-01-03T14:32:20.826Z,100094.00
2023-01-03T14:35:19.249Z,100095.60
2023-01-03T14:38:16.923Z,100100.20
2023-01-03T14:41:14.437Z,100108.40
2023-01-03T14:44:12.083Z,100101.00
2023-01-03T14:47:09.541Z,100100.00
2023-01-03T14:50:08.600Z,100104.60
2023-01-03T14:53:07.088Z,100102.00
2023-01-03T14:56:04.564Z,100101.00
2023-01-03T14:59:02.260Z,100101.80
2023-01-03T15:01:59.849Z,100098.20
2023-01-03T15:04:57.626Z,100103.40
2023-01-03T15:07:55.273Z,100100.60
2023-01-03T15:10:52.674Z,100093.60
2023-01-03T15:13:50.770Z,100093.80
2023-01-03T15:16:48.256Z,100099.40
2023-01-03T15:19:45.872Z,100097.20
2023-01-03T15:22:43.294Z,100099.20
2023-01-03T15:25:41.402Z,100109.80
2023-01-03T15:28:38.815Z,100111.00
2023-01-03T15:31:37.450Z,100107.80
2023-01-03T15:34:35.379Z,100107.40
2023-01-03T15:37:32.826Z,100107.00
2023-01-03T15:40:30.404Z,100105.60
2023-01-03T15:43:27.950Z,100105.80
2023-01-03T15:46:25.739Z,100107.20
2023-01-03T15:49:23.198Z,100111.20
2023-01-03T15:52:20.889Z,100114.00
2023-01-03T15:55:18.565Z,100115.00
2023-01-03T15:58:16.001Z,100114.60
2023-01-03T16:01:13.902Z,100105.80
2023-01-03T16:04:11.452Z,100110.00
2023-01-03T16:07:09.115Z,100111.80
2023-01-03T16:10:06.538Z,100117.00
2023-01-03T16:13:04.265Z,100113.20
2023-01-03T16:16:01.693Z,100113.60
2023-01-03T16:18:59.379Z,100126.00
2023-01-03T16:22:32.758Z,100131.20
2023-01-03T16:25:14.530Z,100140.40
2023-01-03T16:28:12.687Z,100143.00
2023-01-03T16:31:10.182Z,100140.00
2023-01-03T16:34:07.850Z,100142.00
2023-01-03T16:37:05.724Z,100147.80
2023-01-03T16:40:03.160Z,100151.00
2023-01-03T16:43:00.861Z,100149.00
2023-01-03T16:45:58.462Z,100150.40
2023-01-03T16:48:56.180Z,100153.60
2023-01-03T16:51:57.579Z,100157.60
2023-01-03T16:54:55.822Z,100158.80
2023-01-03T16:57:55.006Z,100161.80
2023-01-03T17:00:52.810Z,100164.00
2023-01-03T17:03:50.935Z,100169.80
2023-01-03T17:06:48.508Z,100168.40
2023-01-03T17:09:46.135Z,100165.20
2023-01-03T17:12:43.847Z,100166.60
2023-01-03T17:15:41.593Z,100171.00
2023-01-03T17:18:42.449Z,100181.00
2023-01-03T17:21:39.879Z,100184.00
2023-01-03T17:24:37.576Z,100186.00
2023-01-03T17:27:35.033Z,100188.20
2023-01-03T17:30:32.759Z,100187.40
2023-01-03T17:33:33.996Z,100187.00
2023-01-03T17:36:32.233Z,100187.40
2023-01-03T17:39:30.465Z,100188.60
2023-01-03T17:42:29.231Z,100190.40
2023-01-03T17:45:40.915Z,100190.80
2023-01-03T17:48:55.809Z,100194.40
2023-01-03T17:51:53.531Z,100199.40
2023-01-03T17:54:51.163Z,100197.00
2023-01-03T17:57:48.959Z,100198.00
2023-01-03T18:00:46.620Z,100199.40
2023-01-03T18:03:48.468Z,100204.80
2023-01-03T18:06:46.405Z,100208.40
2023-01-03T18:09:43.879Z,100212.00
2023-01-03T18:12:41.585Z,100216.60
2023-01-03T18:15:39.416Z,100220.00
2023-01-03T18:18:36.875Z,100212.20
2023-01-03T18:21:34.599Z,100215.80
2023-01-03T18:24:32.034Z,100214.60
2023-01-03T18:27:30.154Z,100218.40
2023-01-03T18:30:27.656Z,100220.20
2023-01-03T18:33:25.759Z,100220.80
2023-01-03T18:36:24.293Z,100226.60
2023-01-03T18:39:21.723Z,100235.00
2023-01-03T18:42:42.380Z,100227.40
2023-01-03T18:45:40.128Z,100224.20
2023-01-03T18:48:38.317Z,100221.60
2023-01-03T18:51:36.310Z,100220.00
2023-01-03T18:54:33.967Z,100222.00
2023-01-03T18:57:31.756Z,100223.00
2023-01-03T19:00:29.185Z,100220.80
2023-01-03T19:03:27.251Z,100223.20
2023-01-03T19:06:25.557Z,100224.60
2023-01-03T19:09:22.993Z,100223.00
2023-01-03T19:12:20.782Z,100228.80
2023-01-03T19:15:18.193Z,100233.60
2023-01-03T19:18:16.310Z,100229.00
2023-01-03T19:21:13.742Z,100224.20
2023-01-03T19:24:11.450Z,100227.80
2023-01-03T19:27:09.530Z,100232.00
2023-01-03T19:30:07.339Z,100234.80
2023-01-03T19:33:05.479Z,100237.40
2023-01-03T19:36:03.749Z,100239.60
2023-01-03T19:39:01.354Z,100239.40
2023-01-03T19:42:16.831Z,100238.40
2023-01-03T19:45:14.380Z,100238.80
2023-01-03T19:48:12.471Z,100238.20
2023-01-03T19:51:10.286Z,100242.20
2023-01-03T19:54:08.989Z,100247.80
2023-01-03T19:57:06.572Z,100243.20
2023-01-03T20:00:06.466Z,100247.60
2023-01-03T20:03:05.352Z,100241.80
2023-01-03T20:06:03.784Z,100244.20
2023-01-03T20:09:04.898Z,100244.40
2023-01-03T20:12:02.563Z,100247.80
2023-01-03T20:15:06.828Z,100242.80
2023-01-03T20:18:06.246Z,100242.20
2023-01-03T20:21:04.180Z,100245.00
2023-01-03T20:24:02.842Z,100249.60
2023-01-03T20:27:03.317Z,100252.20
2023-01-03T20:30:02.808Z,100255.80
2023-01-03T20:33:00.808Z,100251.20
2023-01-03T20:36:22.124Z,100253.40
2023-01-03T20:39:17.293Z,100262.00
2023-01-03T20:42:14.735Z,100257.20
2023-01-03T20:45:12.423Z,100256.60
2023-01-03T20:48:09.922Z,100255.60
2023-01-03T20:51:07.827Z,100254.60
2023-01-03T20:54:05.316Z,100261.20
2023-01-03T20:57:03.462Z,100262.20
2023-01-03T21:00:00.895Z,100263.40
2023-01-03T21:02:58.741Z,100267.00
2023-01-03T21:05:57.349Z,100265.40
2023-01-03T21:08:58.515Z,100264.00
2023-01-03T21:11:56.299Z,100259.00
2023-01-03T21:14:54.240Z,100262.60
2023-01-03T21:17:52.032Z,100259.40
2023-01-03T21:20:49.468Z,100261.80
2023-01-03T21:23:47.693Z,100261.60
2023-01-03T21:26:45.447Z,100263.00
2023-01-03T21:29:43.400Z,100265.20
2023-01-03T21:32:41.895Z,100263.00
2023-01-03T21:35:41.157Z,100260.20
2023-01-03T21:38:38.947Z,100256.40
2023-01-03T21:41:57.499Z,100255.80
2023-01-03T21:44:55.057Z,100257.20
2023-01-03T21:47:52.836Z,100257.80
2023-01-03T21:50:51.263Z,100259.40
2023-01-03T21:53:49.096Z,100263.00
2023-01-03T21:56:47.093Z,100267.20
2023-01-03T21:59:45.020Z,100272.80
2023-01-03T22:03:00.650Z,100276.80
2023-01-03T22:05:58.424Z,100273.60
2023-01-03T22:08:55.854Z,100278.00
2023-01-03T22:11:53.503Z,100285.60
2023-01-03T22:14:51.287Z,100282.60
2023-01-03T22:17:48.716Z,100287.60
2023-01-03T22:20:46.415Z,100283.80
2023-01-03T22:23:43.835Z,100281.20
2023-01-03T22:26:41.544Z,100284.60
2023-01-03T22:29:38.967Z,100286.60
2023-01-03T22:32:36.596Z,100293.00
2023-01-03T22:35:34.025Z,100292.60
2023-01-03T22:38:31.715Z,100293.00
2023-01-03T22:41:29.531Z,100296.00
2023-01-03T22:44:26.956Z,100292.60
2023-01-03T22:47:24.705Z,100292.80
2023-01-03T22:50:22.358Z,100297.00
2023-01-03T22:53:20.124Z,100297.00
2023-01-03T22:56:17.550Z,100297.20
2023-01-03T22:59:15.465Z,100293.20
2023-01-03T23:02:13.096Z,100295.60
2023-01-03T23:05:10.963Z,100292.60
2023-01-03T23:08:08.389Z,100288.80
2023-01-03T23:11:19.856Z,100287.40
2023-01-03T23:14:17.584Z,100289.00
2023-01-03T23:17:32.558Z,100293.20
2023-01-03T23:20:30.421Z,100291.20
2023-01-03T23:23:27.835Z,100288.40
2023-01-03T23:26:25.537Z,100290.00
2023-01-03T23:29:23.233Z,100288.40
2023-01-03T23:32:20.661Z,100286.60
2023-01-03T23:35:18.832Z,100285.00
2023-01-03T23:38:16.253Z,100278.00
2023-01-03T23:41:13.964Z,100278.80
2023-01-03T23:44:11.463Z,100271.40
2023-01-03T23:47:12.259Z,100267.80
2023-01-03T23:50:10.333Z,100266.00
2023-01-03T23:53:07.994Z,100259.00
2023-01-03T23:56:05.432Z,100264.80
2023-01-03T23:59:04.262Z,100259.80
